createdAt,value
2022-07-29T00:04:06.406Z,100808.38
2022-07-29T00:09:08.232Z,100807.23
2022-07-29T00:14:09.712Z,100804.84
2022-07-29T00:19:10.859Z,100808.73
2022-07-29T00:24:12.495Z,100809.46
2022-07-29T00:34:53.525Z,100807.16
2022-07-29T00:39:55.502Z,100808.00
2022-07-29T00:44:56.668Z,100807.14
2022-07-29T00:49:57.734Z,100806.54
2022-07-29T00:54:59.089Z,100802.50
2022-07-29T01:00:00.521Z,100807.00
2022-07-29T01:05:04.002Z,100804.52
2022-07-29T01:10:08.104Z,100809.40
2022-07-29T01:15:09.626Z,100815.95
2022-07-29T01:20:18.026Z,100812.02
2022-07-29T01:25:46.565Z,100818.55
2022-07-29T01:30:53.053Z,100814.91
2022-07-29T01:35:54.478Z,100814.95
2022-07-29T01:41:10.035Z,100815.52
2022-07-29T01:46:21.580Z,100816.63
2022-07-29T01:51:36.177Z,100815.08
2022-07-29T01:56:39.180Z,100813.35
2022-07-29T02:01:43.101Z,100813.15
2022-07-29T02:06:45.169Z,100817.60
2022-07-29T02:11:51.117Z,100819.33
2022-07-29T02:16:54.495Z,100819.33
2022-07-29T02:21:57.889Z,100819.46
2022-07-29T02:27:01.032Z,100816.85
2022-07-29T02:32:04.014Z,100819.61
2022-07-29T02:37:05.576Z,100817.04
2022-07-29T02:42:10.192Z,100822.70
2022-07-29T02:47:19.392Z,100825.77
2022-07-29T02:52:40.126Z,100825.85
2022-07-29T02:57:53.882Z,100825.73
2022-07-29T03:02:59.838Z,100828.85
2022-07-29T03:08:10.750Z,100829.11
2022-07-29T03:13:13.399Z,100832.64
2022-07-29T03:18:15.688Z,100825.81
2022-07-29T03:23:22.947Z,100825.11
2022-07-29T03:28:27.439Z,100830.08
2022-07-29T03:33:30.486Z,100826.02
2022-07-29T03:38:35.989Z,100821.16
2022-07-29T03:43:49.089Z,100824.77
2022-07-29T03:48:56.479Z,100824.42
2022-07-29T03:53:58.694Z,100829.64
2022-07-29T03:59:02.409Z,100826.10
2022-07-29T04:04:04.936Z,100826.99
2022-07-29T04:09:06.297Z,100823.77
2022-07-29T04:14:11.154Z,100822.56
2022-07-29T04:19:12.331Z,100825.80
2022-07-29T04:24:13.920Z,100828.32
2022-07-29T04:29:15.485Z,100832.67
2022-07-29T04:34:17.175Z,100841.41
2022-07-29T04:39:22.807Z,100846.77
2022-07-29T04:44:28.574Z,100848.34
2022-07-29T04:49:30.308Z,100848.16
2022-07-29T04:54:31.498Z,100847.59
2022-07-29T04:59:32.602Z,100847.71
2022-07-29T05:04:33.723Z,100843.61
2022-07-29T05:09:34.868Z,100848.48
2022-07-29T05:14:36.259Z,100845.34
2022-07-29T05:19:39.352Z,100849.70
2022-07-29T05:24:41.040Z,100849.80
2022-07-29T05:29:42.984Z,100854.23
2022-07-29T05:34:51.146Z,100854.23
2022-07-29T05:39:56.523Z,100861.44
2022-07-29T05:44:58.499Z,100865.98
2022-07-29T05:49:59.710Z,100869.54
2022-07-29T05:55:04.433Z,100874.27
2022-07-29T06:00:06.602Z,100865.16
2022-07-29T06:05:07.908Z,100865.15
2022-07-29T06:10:14.235Z,100853.39
2022-07-29T06:15:15.772Z,100866.14
2022-07-29T06:20:16.880Z,100870.32
2022-07-29T06:25:18.467Z,100869.61
2022-07-29T06:30:19.733Z,100865.77
2022-07-29T06:35:38.948Z,100865.95
2022-07-29T06:41:03.061Z,100865.61
2022-07-29T06:46:07.753Z,100862.39
2022-07-29T06:51:10.401Z,100864.92
2022-07-29T06:56:14.058Z,100859.70
2022-07-29T07:01:15.645Z,100857.48
2022-07-29T07:06:16.912Z,100854.27
2022-07-29T07:11:18.097Z,100856.64
2022-07-29T07:16:19.388Z,100859.19
2022-07-29T07:21:20.715Z,100854.28
2022-07-29T07:26:21.948Z,100860.06
2022-07-29T07:31:23.182Z,100858.46
2022-07-29T07:36:24.610Z,100862.05
2022-07-29T07:41:25.842Z,100855.52
2022-07-29T07:46:27.176Z,100858.75
2022-07-29T07:51:28.484Z,100850.81
2022-07-29T07:56:34.881Z,100855.36
2022-07-29T08:01:55.116Z,100854.02
2022-07-29T08:06:58.495Z,100860.17
2022-07-29T08:11:59.671Z,100856.13
2022-07-29T08:17:01.022Z,100859.82
2022-07-29T08:22:02.511Z,100855.98
2022-07-29T08:27:03.686Z,100846.56
2022-07-29T08:32:05.579Z,100846.21
2022-07-29T08:37:06.708Z,100851.71
2022-07-29T08:42:07.931Z,100852.02
2022-07-29T08:47:09.214Z,100847.29
2022-07-29T08:52:11.667Z,100844.70
2022-07-29T08:57:16.760Z,100843.75
2022-07-29T09:02:21.156Z,100843.14
2022-07-29T09:07:22.296Z,100836.16
2022-07-29T09:12:28.719Z,100833.40
2022-07-29T09:17:49.758Z,100836.23
2022-07-29T09:22:53.753Z,100830.91
2022-07-29T09:27:54.886Z,100826.52
2022-07-29T09:33:00.231Z,100823.68
2022-07-29T09:38:14.033Z,100824.55
2022-07-29T09:43:15.304Z,100826.45
2022-07-29T09:48:25.274Z,100825.70
2022-07-29T09:53:37.943Z,100817.44
2022-07-29T09:58:39.190Z,100813.88
2022-07-29T10:03:59.460Z,100811.14
2022-07-29T10:09:19.746Z,100812.29
2022-07-29T10:14:23.874Z,100804.14
2022-07-29T10:19:25.308Z,100797.00
2022-07-29T10:24:28.438Z,100798.55
2022-07-29T10:29:31.573Z,100797.85
2022-07-29T10:34:54.268Z,100792.64
2022-07-29T10:40:33.402Z,100799.30
2022-07-29T10:45:37.251Z,100795.88
2022-07-29T10:51:04.455Z,100796.14
2022-07-29T10:56:26.717Z,100794.46
2022-07-29T11:01:37.222Z,100788.08
2022-07-29T11:06:58.708Z,100789.76
2022-07-29T11:12:01.027Z,100781.52
2022-07-29T11:17:06.975Z,100777.09
2022-07-29T11:22:10.173Z,100774.16
2022-07-29T11:27:18.228Z,100768.70
2022-07-29T11:32:24.183Z,100757.27
2022-07-29T11:37:27.896Z,100753.15
2022-07-29T11:42:35.328Z,100751.23
2022-07-29T11:47:40.643Z,100744.33
2022-07-29T11:52:49.581Z,100725.70
2022-07-29T11:58:04.041Z,100729.65
2022-07-29T12:03:11.271Z,100727.53
2022-07-29T12:08:19.874Z,100729.66
2022-07-29T12:13:22.227Z,100728.65
2022-07-29T12:18:24.879Z,100725.55
2022-07-29T12:23:29.288Z,100726.19
2022-07-29T12:28:39.507Z,100729.96
2022-07-29T12:33:41.484Z,100726.80
2022-07-29T12:38:43.420Z,100728.20
2022-07-29T12:44:03.476Z,100731.96
2022-07-29T12:49:04.783Z,100725.25
2022-07-29T12:54:11.189Z,100720.89
2022-07-29T12:59:13.843Z,100718.03
2022-07-29T13:04:36.773Z,100716.71
2022-07-29T13:09:40.741Z,100718.35
2022-07-29T13:14:51.422Z,100710.54
2022-07-29T13:20:05.146Z,100709.38
2022-07-29T13:25:10.264Z,100709.08
2022-07-29T13:30:12.620Z,100705.52
2022-07-29T13:35:14.523Z,100703.83
2022-07-29T13:40:15.856Z,100702.95
2022-07-29T13:45:17.651Z,100695.14
2022-07-29T13:50:19.039Z,100691.23
2022-07-29T13:55:20.799Z,100686.92
2022-07-29T14:00:23.827Z,100682.67
2022-07-29T14:05:24.969Z,100682.94
2022-07-29T14:10:26.939Z,100681.90
2022-07-29T14:15:28.213Z,100681.23
2022-07-29T14:20:30.132Z,100684.85
2022-07-29T14:25:31.365Z,100681.13
2022-07-29T14:30:32.550Z,100675.36
2022-07-29T14:35:33.721Z,100677.80
2022-07-29T14:40:35.196Z,100671.53
2022-07-29T14:45:36.414Z,100671.56
2022-07-29T14:50:38.371Z,100669.71
2022-07-29T14:55:40.707Z,100657.77
2022-07-29T15:00:42.034Z,100660.73
2022-07-29T15:05:43.602Z,100655.59
2022-07-29T15:10:44.844Z,100651.95
2022-07-29T15:15:46.107Z,100650.09
2022-07-29T15:20:47.378Z,100649.16
2022-07-29T15:25:48.529Z,100651.23
2022-07-29T15:30:49.674Z,100654.61
2022-07-29T15:35:50.793Z,100648.55
2022-07-29T15:40:51.968Z,100645.20
2022-07-29T15:46:11.914Z,100643.11
2022-07-29T15:51:14.302Z,100641.95
2022-07-29T15:56:15.636Z,100634.83
2022-07-29T16:01:17.851Z,100624.37
2022-07-29T16:06:19.628Z,100619.52
2022-07-29T16:11:21.013Z,100613.70
2022-07-29T16:16:22.366Z,100603.27
2022-07-29T16:21:24.056Z,100598.62
2022-07-29T16:26:25.195Z,100596.90
2022-07-29T16:31:27.222Z,100593.35
2022-07-29T16:36:28.591Z,100595.31
2022-07-29T16:41:29.778Z,100598.78
2022-07-29T16:46:31.075Z,100595.77
2022-07-29T16:51:32.829Z,100594.12
2022-07-29T16:56:34.318Z,100596.42
2022-07-29T17:01:35.753Z,100595.25
2022-07-29T17:06:39.060Z,100598.77
2022-07-29T17:11:52.349Z,100594.63
2022-07-29T17:17:02.014Z,100596.42
2022-07-29T17:22:19.048Z,100590.04
2022-07-29T17:27:20.885Z,100590.92
2022-07-29T17:32:22.650Z,100593.02
2022-07-29T17:37:23.782Z,100594.62
2022-07-29T17:42:24.928Z,100602.17
2022-07-29T17:47:26.057Z,100598.05
2022-07-29T17:52:27.144Z,100594.52
2022-07-29T17:57:28.513Z,100601.48
2022-07-29T18:02:29.893Z,100607.52
2022-07-29T18:07:31.311Z,100618.20
2022-07-29T18:12:32.465Z,100614.40
2022-07-29T18:17:52.670Z,100620.83
2022-07-29T18:22:55.100Z,100622.69
2022-07-29T18:28:00.361Z,100620.34
2022-07-29T18:33:20.618Z,100623.13
2022-07-29T18:38:22.540Z,100619.61
2022-07-29T18:43:23.717Z,100625.51
2022-07-29T18:48:24.918Z,100626.00
2022-07-29T18:53:26.188Z,100620.89
2022-07-29T18:58:27.509Z,100618.21
2022-07-29T19:03:29.318Z,100618.88
2022-07-29T19:08:30.478Z,100622.07
2022-07-29T19:13:32.753Z,100628.56
2022-07-29T19:18:33.894Z,100629.06
2022-07-29T19:24:01.490Z,100636.79
2022-07-29T19:28:56.649Z,100634.46
2022-07-29T19:33:57.845Z,100636.30
2022-07-29T19:38:59.884Z,100631.05
2022-07-29T19:44:01.221Z,100630.01
2022-07-29T19:49:05.677Z,100630.23
2022-07-29T19:54:07.971Z,100628.98
2022-07-29T19:59:10.602Z,100629.92
2022-07-29T20:04:11.718Z,100635.50
2022-07-29T20:09:16.980Z,100637.77
2022-07-29T20:14:22.244Z,100627.63
2022-07-29T20:19:23.734Z,100630.75
2022-07-29T20:24:25.205Z,100641.70
2022-07-29T20:29:26.325Z,100641.01
2022-07-29T20:34:27.533Z,100634.02
2022-07-29T20:39:29.493Z,100643.02
2022-07-29T20:44:30.615Z,100643.66
2022-07-29T20:49:31.786Z,100639.81
2022-07-29T20:54:33.099Z,100644.80
2022-07-29T20:59:34.219Z,100647.27
2022-07-29T21:04:36.360Z,100647.77
2022-07-29T21:09:37.525Z,100648.21
2022-07-29T21:14:38.953Z,100645.39
2022-07-29T21:19:40.552Z,100643.85
2022-07-29T21:24:41.724Z,100647.41
2022-07-29T21:29:43.052Z,100648.27
2022-07-29T21:34:44.229Z,100640.52
2022-07-29T21:39:45.407Z,100635.27
2022-07-29T21:44:46.884Z,100635.80
2022-07-29T21:49:48.101Z,100629.25
2022-07-29T21:54:51.066Z,100624.31
2022-07-29T21:59:52.375Z,100631.31
2022-07-29T22:04:53.566Z,100632.26
2022-07-29T22:09:55.026Z,100632.70
2022-07-29T22:14:56.493Z,100633.70
2022-07-29T22:19:57.968Z,100633.64
2022-07-29T22:24:59.096Z,100631.62
2022-07-29T22:30:00.165Z,100639.14
2022-07-29T22:35:01.778Z,100637.30
2022-07-29T22:40:04.078Z,100634.55
2022-07-29T22:45:05.656Z,100625.46
2022-07-29T22:50:07.204Z,100616.10
2022-07-29T22:55:08.823Z,100613.69
2022-07-29T23:00:11.594Z,100611.31
2022-07-29T23:05:14.852Z,100609.38
2022-07-29T23:10:15.944Z,100605.32
2022-07-29T23:15:17.086Z,100606.09
2022-07-29T23:20:19.348Z,100599.26
2022-07-29T23:25:20.523Z,100602.91
2022-07-29T23:30:21.735Z,100598.09
2022-07-29T23:35:22.882Z,100598.70
2022-07-29T23:40:24.093Z,100597.38
2022-07-29T23:45:39.970Z,100598.34
2022-07-29T23:50:46.227Z,100596.52
2022-07-29T23:55:47.255Z,100597.11
